Time;durP1;ratioP1;P1;durP2;ratioP2;P2;SDS_P1;SDS_P2;PMS_P1;PMS_P2;Temp;Humidity;BMP_temperature;BMP_pressure;BME280_temperature;BME280_humidity;BME280_pressure;Samples;Min_cycle;Max_cycle;Signal;HPM_P1;HPM_P2
2021/01/10 00:00:29;;;;;;;14.63;6.50;;;5.50;70.60;;;;;;5002351;28;20030;-73
2021/01/10 00:02:56;;;;;;;11.90;6.00;;;5.40;70.50;;;;;;5011060;28;20044;-73
2021/01/10 00:05:34;;;;;;;11.90;5.60;;;5.40;70.50;;;;;;4993132;28;20033;-73
2021/01/10 00:08:00;;;;;;;13.00;6.00;;;5.40;70.50;;;;;;5013312;28;20038;-73
2021/01/10 00:10:27;;;;;;;13.93;7.30;;;5.40;70.60;;;;;;4996385;28;20081;-73
2021/01/10 00:12:57;;;;;;;11.73;6.20;;;5.30;70.70;;;;;;5008029;28;20518;-73
2021/01/10 00:15:23;;;;;;;15.97;8.53;;;5.30;70.70;;;;;;5011059;28;20042;-73
2021/01/10 00:17:48;;;;;;;19.00;8.23;;;5.30;70.80;;;;;;5013757;28;20135;-73
2021/01/10 00:20:15;;;;;;;11.90;7.20;;;5.20;70.70;;;;;;5006197;28;20034;-73
2021/01/10 00:22:41;;;;;;;14.40;8.77;;;5.20;70.70;;;;;;5013997;28;20118;-73
2021/01/10 00:25:09;;;;;;;15.57;9.17;;;5.20;70.70;;;;;;5010746;28;20034;-73
2021/01/10 00:27:36;;;;;;;16.47;10.50;;;5.10;70.70;;;;;;5000610;28;20027;-73
2021/01/10 00:30:07;;;;;;;15.07;9.67;;;5.10;70.90;;;;;;4991675;28;20469;-72
2021/01/10 00:32:33;;;;;;;15.97;8.83;;;5.10;70.90;;;;;;5011002;28;20036;-73
2021/01/10 00:34:59;;;;;;;16.70;9.77;;;5.10;71.10;;;;;;5012327;28;20049;-73
2021/01/10 00:37:25;;;;;;;15.83;9.13;;;5.10;71.10;;;;;;5011214;28;20103;-72
2021/01/10 00:39:51;;;;;;;19.90;9.30;;;5.10;71.00;;;;;;4999026;28;20117;-72
2021/01/10 00:42:18;;;;;;;15.53;9.00;;;5.10;71.00;;;;;;5007043;28;20077;-73
2021/01/10 00:44:45;;;;;;;16.83;9.37;;;5.10;71.10;;;;;;5001070;28;20037;-73
2021/01/10 00:47:12;;;;;;;15.43;8.70;;;5.10;71.10;;;;;;5006406;28;20049;-73
2021/01/10 00:49:39;;;;;;;19.20;9.80;;;5.00;71.00;;;;;;5010215;28;20088;-73
2021/01/10 00:52:06;;;;;;;15.77;9.60;;;5.00;71.00;;;;;;4999179;28;20058;-73
2021/01/10 00:54:32;;;;;;;14.37;8.47;;;5.00;71.00;;;;;;4992106;28;20026;-73
2021/01/10 00:56:59;;;;;;;17.57;9.37;;;5.00;71.10;;;;;;4993392;28;20058;-73
2021/01/10 00:59:25;;;;;;;17.87;9.67;;;5.00;71.10;;;;;;4992121;28;20624;-73
2021/01/10 01:01:51;;;;;;;16.93;10.57;;;4.90;71.00;;;;;;5011256;28;20136;-73
2021/01/10 01:04:17;;;;;;;15.63;9.10;;;4.90;71.10;;;;;;4991413;28;20042;-72
2021/01/10 01:06:43;;;;;;;16.00;9.20;;;5.00;71.10;;;;;;5012083;28;20045;-72
2021/01/10 01:09:08;;;;;;;16.03;9.63;;;4.90;71.00;;;;;;4996189;28;20030;-73
2021/01/10 01:11:36;;;;;;;18.67;10.03;;;4.90;71.00;;;;;;5008939;28;20038;-73
2021/01/10 01:14:03;;;;;;;13.50;9.43;;;4.80;71.00;;;;;;5005056;28;20495;-73
2021/01/10 01:16:29;;;;;;;13.90;8.70;;;4.80;71.10;;;;;;5014810;28;20144;-73
2021/01/10 01:18:54;;;;;;;14.67;10.03;;;4.80;71.20;;;;;;4989550;28;20118;-74
2021/01/10 01:21:21;;;;;;;13.63;9.67;;;4.80;71.30;;;;;;4997477;28;20084;-73
2021/01/10 01:23:47;;;;;;;18.40;10.40;;;4.80;71.50;;;;;;4979103;28;20030;-73
2021/01/10 01:26:17;;;;;;;15.57;10.40;;;4.80;71.60;;;;;;4991512;28;20050;-73
2021/01/10 01:28:43;;;;;;;16.20;8.97;;;4.80;71.70;;;;;;4995344;28;20030;-73
2021/01/10 01:31:13;;;;;;;18.60;10.93;;;4.80;72.00;;;;;;4996395;28;20030;-73
2021/01/10 01:33:41;;;;;;;20.23;10.97;;;4.90;72.10;;;;;;5001773;28;20038;-73
2021/01/10 01:36:18;;;;;;;17.20;10.67;;;4.90;71.90;;;;;;5000436;28;20207;-72
2021/01/10 01:38:45;;;;;;;14.33;9.10;;;4.90;71.70;;;;;;5006017;28;20081;-73
2021/01/10 01:41:11;;;;;;;18.67;12.13;;;4.90;71.60;;;;;;5007813;28;20052;-73
2021/01/10 01:43:37;;;;;;;14.43;9.47;;;4.80;71.50;;;;;;5002785;28;20046;-73
2021/01/10 01:46:04;;;;;;;17.60;9.43;;;4.80;71.50;;;;;;4996650;28;20033;-73
2021/01/10 01:48:31;;;;;;;32.93;10.83;;;4.80;71.50;;;;;;5007678;28;20176;-73
2021/01/10 01:51:00;;;;;;;15.97;10.07;;;4.80;71.50;;;;;;5013435;28;20435;-71
2021/01/10 01:53:26;;;;;;;20.47;12.37;;;4.70;72.00;;;;;;5008881;28;20085;-73
2021/01/10 01:55:53;;;;;;;18.70;12.13;;;4.70;72.20;;;;;;4991034;28;20112;-73
2021/01/10 01:58:23;;;;;;;21.17;13.13;;;4.80;72.30;;;;;;4985269;28;20053;-73
2021/01/10 02:00:49;;;;;;;20.40;10.97;;;4.80;72.30;;;;;;4992465;28;20030;-73
2021/01/10 02:03:35;;;;;;;20.23;12.00;;;4.80;72.30;;;;;;4991516;28;20076;-74
2021/01/10 02:06:14;;;;;;;17.63;10.20;;;4.80;72.10;;;;;;4991957;28;20518;-73
2021/01/10 02:08:41;;;;;;;15.53;10.93;;;4.80;72.10;;;;;;4994684;28;20041;-73
2021/01/10 02:11:10;;;;;;;16.47;10.97;;;4.80;72.00;;;;;;5009832;28;20034;-72
2021/01/10 02:13:37;;;;;;;17.77;10.97;;;4.80;71.90;;;;;;5007374;28;20030;-73
2021/01/10 02:16:04;;;;;;;20.50;11.17;;;4.80;71.80;;;;;;5011958;28;20108;-73
2021/01/10 02:18:36;;;;;;;20.13;10.93;;;4.70;71.70;;;;;;5008372;28;20046;-73
2021/01/10 02:21:08;;;;;;;19.63;11.07;;;4.70;71.80;;;;;;4994313;28;20037;-73
2021/01/10 02:23:36;;;;;;;18.37;10.70;;;4.70;71.90;;;;;;5015065;28;20053;-73
2021/01/10 02:26:03;;;;;;;22.20;12.90;;;4.70;72.00;;;;;;4992137;28;20030;-74
2021/01/10 02:28:30;;;;;;;20.33;12.43;;;4.70;72.10;;;;;;4975451;28;20508;-72
2021/01/10 02:30:58;;;;;;;19.73;12.60;;;4.70;72.20;;;;;;5007341;28;20131;-73
2021/01/10 02:33:46;;;;;;;18.63;13.10;;;4.80;72.30;;;;;;5005813;28;20050;-73
2021/01/10 02:36:32;;;;;;;30.40;13.17;;;4.80;72.40;;;;;;4992557;28;20070;-74
2021/01/10 02:39:02;;;;;;;22.50;12.77;;;4.80;72.30;;;;;;5002462;28;20038;-73
2021/01/10 02:41:42;;;;;;;23.53;12.40;;;4.90;72.20;;;;;;4991463;28;20026;-73
2021/01/10 02:44:22;;;;;;;21.87;12.83;;;4.80;71.90;;;;;;5000419;28;20445;-73
2021/01/10 02:46:52;;;;;;;20.57;12.20;;;4.90;71.80;;;;;;4998686;28;20046;-73
2021/01/10 02:49:19;;;;;;;15.87;12.27;;;4.80;71.80;;;;;;4993773;28;20453;-73
2021/01/10 02:51:47;;;;;;;22.20;12.37;;;4.80;71.80;;;;;;4991569;28;20046;-73
2021/01/10 02:54:13;;;;;;;21.63;12.77;;;4.80;71.70;;;;;;4989760;28;20565;-73
2021/01/10 02:57:01;;;;;;;18.77;12.20;;;4.70;71.60;;;;;;4990272;28;20043;-73
2021/01/10 02:59:29;;;;;;;17.90;12.60;;;4.70;71.50;;;;;;4998288;28;20034;-73
2021/01/10 03:01:58;;;;;;;21.10;11.57;;;4.70;71.40;;;;;;4991824;28;20022;-73
2021/01/10 03:04:25;;;;;;;21.40;13.00;;;4.70;71.40;;;;;;4988626;28;20926;-73
2021/01/10 03:06:54;;;;;;;23.03;12.40;;;4.60;71.40;;;;;;5006088;28;20030;-73
2021/01/10 03:09:21;;;;;;;19.03;12.17;;;4.60;71.40;;;;;;4991257;28;20140;-73
2021/01/10 03:11:46;;;;;;;21.10;12.30;;;4.60;71.50;;;;;;4976244;28;20034;-73
2021/01/10 03:14:12;;;;;;;17.47;12.17;;;4.50;71.30;;;;;;5010593;28;20036;-73
2021/01/10 03:16:38;;;;;;;18.43;11.27;;;4.50;71.40;;;;;;5011385;28;20049;-73
2021/01/10 03:19:04;;;;;;;22.10;12.80;;;4.50;71.50;;;;;;5007900;28;20120;-72
2021/01/10 03:21:29;;;;;;;17.40;10.97;;;4.50;71.60;;;;;;5008597;28;20026;-73
2021/01/10 03:23:55;;;;;;;19.60;11.63;;;4.50;71.60;;;;;;5009126;28;20026;-73
2021/01/10 03:26:22;;;;;;;18.20;12.20;;;4.50;71.60;;;;;;5008892;28;20041;-73
2021/01/10 03:28:47;;;;;;;18.00;11.50;;;4.40;71.40;;;;;;4992225;28;20034;-73
2021/01/10 03:31:13;;;;;;;18.10;12.00;;;4.40;71.40;;;;;;4989541;28;20480;-73
2021/01/10 03:33:45;;;;;;;20.10;11.57;;;4.40;71.40;;;;;;4993460;28;20043;-73
2021/01/10 03:36:14;;;;;;;17.90;12.20;;;4.30;71.50;;;;;;4995803;28;20480;-73
2021/01/10 03:38:40;;;;;;;22.47;12.40;;;4.30;72.00;;;;;;5009989;28;20037;-73
2021/01/10 03:41:07;;;;;;;17.03;11.13;;;4.30;72.20;;;;;;5008744;28;20029;-73
2021/01/10 03:43:32;;;;;;;21.80;13.23;;;4.30;72.40;;;;;;5009415;28;20125;-73
2021/01/10 03:45:59;;;;;;;17.43;12.13;;;4.40;72.50;;;;;;4998591;28;20161;-72
2021/01/10 03:48:24;;;;;;;18.60;12.70;;;4.40;72.50;;;;;;5003148;28;20033;-73
2021/01/10 03:50:50;;;;;;;17.80;12.53;;;4.50;72.70;;;;;;5009678;28;20030;-73
2021/01/10 03:53:16;;;;;;;21.03;14.37;;;4.50;72.90;;;;;;5003605;28;20782;-73
2021/01/10 03:55:41;;;;;;;18.10;12.77;;;4.50;72.90;;;;;;4960776;28;20039;-73
2021/01/10 03:58:07;;;;;;;21.73;14.10;;;4.60;72.90;;;;;;5008671;28;20133;-72
2021/01/10 04:00:32;;;;;;;24.03;13.73;;;4.70;72.80;;;;;;5010484;28;20038;-72
2021/01/10 04:02:58;;;;;;;17.77;11.63;;;4.70;72.60;;;;;;5009461;28;20566;-73
2021/01/10 04:05:24;;;;;;;27.97;13.37;;;4.70;72.60;;;;;;4992915;28;20038;-72
2021/01/10 04:07:49;;;;;;;17.80;13.27;;;4.70;72.50;;;;;;4994338;28;20019;-72
2021/01/10 04:10:15;;;;;;;18.63;12.80;;;4.80;72.50;;;;;;4998980;28;20539;-73
2021/01/10 04:12:41;;;;;;;18.70;13.77;;;4.80;72.50;;;;;;4992587;28;20026;-72
2021/01/10 04:15:07;;;;;;;19.67;12.30;;;4.80;72.40;;;;;;5011371;28;20045;-73
2021/01/10 04:17:33;;;;;;;20.57;12.87;;;4.80;72.30;;;;;;4991814;28;20042;-72
2021/01/10 04:19:58;;;;;;;21.27;12.30;;;4.80;72.30;;;;;;4974377;28;20452;-72
2021/01/10 04:22:24;;;;;;;19.37;13.00;;;4.80;72.20;;;;;;5001719;28;20030;-72
2021/01/10 04:24:51;;;;;;;19.00;11.83;;;4.80;72.10;;;;;;5000492;28;20038;-73
2021/01/10 04:27:17;;;;;;;20.77;11.80;;;4.70;72.00;;;;;;4999951;28;20100;-73
2021/01/10 04:29:43;;;;;;;24.97;13.47;;;4.70;72.10;;;;;;4991236;28;20159;-72
2021/01/10 04:32:08;;;;;;;22.63;14.43;;;4.70;72.10;;;;;;4999237;28;20548;-73
2021/01/10 04:34:34;;;;;;;22.37;13.83;;;4.70;72.20;;;;;;4992576;28;20041;-73
2021/01/10 04:37:00;;;;;;;24.70;15.00;;;4.80;72.40;;;;;;4987647;28;20127;-72
2021/01/10 04:39:25;;;;;;;19.77;13.03;;;4.80;72.30;;;;;;4993340;28;20053;-73
2021/01/10 04:41:52;;;;;;;21.00;12.77;;;6.20;73.20;;;;;;4987685;28;20034;-72
2021/01/10 04:44:18;;;;;;;24.17;14.30;;;4.80;72.40;;;;;;4992227;28;20089;-73
2021/01/10 04:46:44;;;;;;;20.90;13.37;;;4.80;72.60;;;;;;5011935;28;20039;-73
2021/01/10 04:49:11;;;;;;;23.93;12.20;;;4.80;72.60;;;;;;4995331;28;20443;-73
2021/01/10 04:51:38;;;;;;;22.83;12.57;;;4.80;72.60;;;;;;4994169;28;20034;-72
2021/01/10 04:54:06;;;;;;;25.50;14.13;;;4.90;72.50;;;;;;4995227;28;20105;-73
2021/01/10 04:56:35;;;;;;;17.40;11.47;;;4.90;72.60;;;;;;4993121;28;20472;-73
2021/01/10 04:59:02;;;;;;;20.17;11.93;;;4.90;72.50;;;;;;5014033;28;20065;-72
2021/01/10 05:01:35;;;;;;;18.43;12.97;;;4.90;72.50;;;;;;5013137;28;20712;-72
2021/01/10 05:04:01;;;;;;;19.05;12.20;;;4.90;72.40;;;;;;5012605;28;20018;-73
2021/01/10 05:06:27;;;;;;;22.20;13.90;;;4.90;72.20;;;;;;4992400;28;20113;-72
2021/01/10 05:08:54;;;;;;;20.57;13.70;;;4.90;72.00;;;;;;5012716;28;20169;-72
2021/01/10 05:11:20;;;;;;;20.33;11.40;;;4.90;71.80;;;;;;5010209;28;20026;-73
2021/01/10 05:13:46;;;;;;;20.63;13.90;;;4.80;71.80;;;;;;4994350;28;20041;-73
2021/01/10 05:16:19;;;;;;;21.80;13.67;;;4.80;71.70;;;;;;5009350;28;20038;-73
2021/01/10 05:18:50;;;;;;;18.33;12.65;;;4.70;71.60;;;;;;5002822;28;20065;-72
2021/01/10 05:21:15;;;;;;;18.53;12.20;;;4.70;71.60;;;;;;5012529;28;20080;-73
2021/01/10 05:23:41;;;;;;;19.07;12.83;;;4.70;71.50;;;;;;5000956;28;20029;-73
2021/01/10 05:26:08;;;;;;;17.40;12.00;;;4.60;71.50;;;;;;5011348;28;20391;-73
2021/01/10 05:28:36;;;;;;;19.93;12.50;;;4.60;71.60;;;;;;4994024;28;20035;-73
2021/01/10 05:31:08;;;;;;;16.60;11.30;;;4.50;71.60;;;;;;4992091;28;20042;-73
2021/01/10 05:33:50;;;;;;;20.77;11.83;;;4.50;71.50;;;;;;5009472;28;20057;-73
2021/01/10 05:36:29;;;;;;;19.50;12.43;;;4.50;71.50;;;;;;5005539;28;20026;-74
2021/01/10 05:38:55;;;;;;;18.87;12.93;;;4.50;71.50;;;;;;5012647;28;20056;-72
2021/01/10 05:41:23;;;;;;;18.70;12.00;;;4.40;71.50;;;;;;5010936;28;20054;-73
2021/01/10 05:44:15;;;;;;;22.17;12.50;;;4.40;71.60;;;;;;5011053;28;20042;-72
2021/01/10 05:46:41;;;;;;;19.93;12.37;;;4.40;71.70;;;;;;5004356;28;20084;-73
2021/01/10 05:49:20;;;;;;;22.10;13.33;;;4.40;71.90;;;;;;4999545;28;20041;-73
2021/01/10 05:51:47;;;;;;;20.67;12.40;;;4.40;72.00;;;;;;5003832;28;20038;-74
2021/01/10 05:54:38;;;;;;;19.80;12.40;;;4.40;72.20;;;;;;5010578;28;20022;-73
2021/01/10 05:57:09;;;;;;;18.47;12.97;;;4.50;72.30;;;;;;4993025;28;20129;-72
2021/01/10 05:59:37;;;;;;;21.17;12.43;;;4.50;72.30;;;;;;4993366;28;20129;-72
2021/01/10 06:02:04;;;;;;;19.63;11.93;;;4.60;72.30;;;;;;5007677;28;20037;-73
2021/01/10 06:04:30;;;;;;;17.37;11.80;;;4.60;72.20;;;;;;5006354;28;20476;-74
2021/01/10 06:06:57;;;;;;;16.90;11.87;;;4.70;72.20;;;;;;5012966;28;20034;-74
2021/01/10 06:09:23;;;;;;;18.30;11.30;;;4.70;72.20;;;;;;4996271;28;20029;-74
2021/01/10 06:11:48;;;;;;;20.53;12.40;;;4.70;72.20;;;;;;5013416;28;20045;-74
2021/01/10 06:14:24;;;;;;;19.33;12.30;;;4.70;72.20;;;;;;5010505;28;20104;-73
2021/01/10 06:16:57;;;;;;;19.07;11.60;;;4.70;72.30;;;;;;5011343;28;20066;-73
2021/01/10 06:19:26;;;;;;;19.17;12.68;;;4.80;72.40;;;;;;5009779;28;20149;-73
2021/01/10 06:21:55;;;;;;;21.17;12.67;;;4.80;72.40;;;;;;4993090;28;20436;-73
2021/01/10 06:24:22;;;;;;;18.33;12.83;;;4.90;72.50;;;;;;5015320;28;20022;-74
2021/01/10 06:27:00;;;;;;;18.60;13.07;;;4.90;72.50;;;;;;5004374;28;20042;-73
2021/01/10 06:29:30;;;;;;;18.40;11.63;;;5.00;72.80;;;;;;4998358;28;20080;-74
2021/01/10 06:31:58;;;;;;;20.20;12.30;;;5.10;72.80;;;;;;5006156;28;20030;-73
2021/01/10 06:34:26;;;;;;;20.73;13.73;;;5.10;72.80;;;;;;5010086;28;20026;-73
2021/01/10 06:36:53;;;;;;;17.80;11.77;;;5.10;72.70;;;;;;5003273;28;20514;-73
2021/01/10 06:39:28;;;;;;;22.30;12.17;;;5.10;72.70;;;;;;5010752;28;20030;-75
2021/01/10 06:42:04;;;;;;;18.97;13.00;;;5.10;72.80;;;;;;5006179;28;20038;-73
2021/01/10 06:44:34;;;;;;;23.50;12.43;;;5.20;72.80;;;;;;5013331;28;20026;-74
2021/01/10 06:47:00;;;;;;;19.23;11.47;;;5.20;72.80;;;;;;5002206;28;20048;-74
2021/01/10 06:49:25;;;;;;;17.90;12.20;;;5.20;72.80;;;;;;4981289;28;20034;-74
2021/01/10 06:51:55;;;;;;;21.93;12.10;;;5.20;72.80;;;;;;5006024;28;20037;-72
2021/01/10 06:54:21;;;;;;;19.83;12.37;;;5.20;72.80;;;;;;5007078;28;20082;-74
2021/01/10 06:56:48;;;;;;;16.50;11.20;;;5.30;72.90;;;;;;4993522;28;20086;-74
2021/01/10 06:59:18;;;;;;;20.37;12.70;;;5.30;72.90;;;;;;4973675;28;20062;-74
2021/01/10 07:01:52;;;;;;;17.03;11.73;;;5.30;72.90;;;;;;4990715;28;20038;-73
2021/01/10 07:04:19;;;;;;;17.30;11.80;;;5.30;73.00;;;;;;5006859;28;20037;-73
2021/01/10 07:06:52;;;;;;;16.93;11.23;;;5.30;73.00;;;;;;4995798;28;20121;-74
2021/01/10 07:09:20;;;;;;;20.80;12.90;;;5.30;73.00;;;;;;4994073;28;20094;-74
2021/01/10 07:11:47;;;;;;;19.93;11.97;;;5.30;72.90;;;;;;4991856;28;20034;-73
2021/01/10 07:14:12;;;;;;;17.67;11.87;;;5.40;73.00;;;;;;5007225;28;20137;-74
2021/01/10 07:16:43;;;;;;;21.93;11.50;;;5.40;73.00;;;;;;5004808;28;20152;-74
2021/01/10 07:19:11;;;;;;;19.73;13.00;;;5.40;73.10;;;;;;5008546;28;20484;-73
2021/01/10 07:21:40;;;;;;;17.17;10.33;;;5.40;73.10;;;;;;4995392;28;20034;-73
2021/01/10 07:24:15;;;;;;;20.43;12.03;;;5.40;73.10;;;;;;4990516;28;20125;-73
2021/01/10 07:26:47;;;;;;;17.53;11.33;;;5.70;73.20;;;;;;5001531;28;20099;-74
2021/01/10 07:29:29;;;;;;;21.47;13.07;;;5.50;73.20;;;;;;5006992;28;20025;-73
2021/01/10 07:31:55;;;;;;;20.00;11.67;;;5.50;73.20;;;;;;5002059;28;20030;-73
2021/01/10 07:34:21;;;;;;;28.80;14.83;;;5.50;73.10;;;;;;4997324;28;20721;-73
2021/01/10 07:36:49;;;;;;;18.10;14.00;;;5.60;73.20;;;;;;4995872;28;20065;-74
2021/01/10 07:39:17;;;;;;;18.87;12.90;;;5.60;73.20;;;;;;5004606;28;20049;-73
2021/01/10 07:41:42;;;;;;;21.90;12.77;;;5.60;73.10;;;;;;5005012;28;20105;-74
2021/01/10 07:44:08;;;;;;;18.73;12.17;;;5.60;73.20;;;;;;4993351;28;20065;-74
2021/01/10 07:46:51;;;;;;;15.70;12.00;;;5.50;73.30;;;;;;4994253;28;20023;-74
2021/01/10 07:49:22;;;;;;;16.00;12.60;;;5.40;73.70;;;;;;4995086;28;20396;-73
2021/01/10 07:51:48;;;;;;;20.07;12.23;;;5.40;73.80;;;;;;5010649;28;20026;-73
2021/01/10 07:54:15;;;;;;;24.87;13.93;;;5.40;73.90;;;;;;5005141;28;20121;-73
2021/01/10 07:56:40;;;;;;;22.80;13.37;;;5.50;74.00;;;;;;4996443;28;20045;-73
2021/01/10 07:59:17;;;;;;;18.30;12.53;;;5.40;74.00;;;;;;5001932;28;20042;-73
2021/01/10 08:02:00;;;;;;;22.60;13.20;;;5.40;74.00;;;;;;4984192;28;20118;-73
2021/01/10 08:04:33;;;;;;;22.92;13.05;;;5.20;74.00;;;;;;4992094;28;20056;-73
2021/01/10 08:07:01;;;;;;;18.75;12.52;;;5.40;74.10;;;;;;5004339;28;20058;-72
2021/01/10 08:09:33;;;;;;;17.87;12.57;;;5.40;74.20;;;;;;5002947;28;20105;-74
2021/01/10 08:12:00;;;;;;;18.27;12.80;;;5.40;74.20;;;;;;5009678;28;20033;-73
2021/01/10 08:14:26;;;;;;;16.37;10.63;;;5.50;74.30;;;;;;5013186;28;20049;-74
2021/01/10 08:16:52;;;;;;;16.77;11.70;;;5.50;74.10;;;;;;5008963;28;20131;-73
2021/01/10 08:19:18;;;;;;;18.27;11.73;;;5.60;73.90;;;;;;5008064;28;20046;-73
2021/01/10 08:21:44;;;;;;;17.93;12.10;;;5.70;73.60;;;;;;5010264;28;20109;-73
2021/01/10 08:24:11;;;;;;;20.53;12.27;;;5.80;73.40;;;;;;4995921;28;20062;-73
2021/01/10 08:26:40;;;;;;;19.67;12.83;;;5.80;73.10;;;;;;5013712;28;20044;-72
2021/01/10 08:29:07;;;;;;;17.60;11.93;;;5.90;73.20;;;;;;5013365;28;20030;-73
2021/01/10 08:31:34;;;;;;;21.17;14.13;;;5.80;73.10;;;;;;5009880;28;20069;-74
2021/01/10 08:34:08;;;;;;;16.93;12.93;;;5.90;73.20;;;;;;5011449;28;20479;-74
2021/01/10 08:36:35;;;;;;;18.92;11.27;;;5.80;73.30;;;;;;4999486;28;20038;-73
2021/01/10 08:39:04;;;;;;;16.00;11.43;;;5.80;73.50;;;;;;4997234;28;20038;-73
2021/01/10 08:41:37;;;;;;;19.77;12.07;;;5.90;73.40;;;;;;4999522;28;20527;-74
2021/01/10 08:44:05;;;;;;;19.10;11.97;;;4.50;72.30;;;;;;5003360;28;20065;-74
2021/01/10 08:46:33;;;;;;;21.33;13.00;;;6.00;73.10;;;;;;5002016;28;20134;-73
2021/01/10 08:48:59;;;;;;;22.63;12.13;;;6.00;73.00;;;;;;4999011;28;20030;-73
2021/01/10 08:51:36;;;;;;;18.80;12.07;;;6.10;72.90;;;;;;5011687;28;20105;-73
2021/01/10 08:54:12;;;;;;;18.77;13.20;;;6.20;72.60;;;;;;4993780;28;20038;-73
2021/01/10 08:56:39;;;;;;;20.87;13.57;;;6.20;72.40;;;;;;5010814;28;20034;-73
2021/01/10 08:59:05;;;;;;;19.17;14.40;;;6.20;72.40;;;;;;5013725;28;20125;-73
2021/01/10 09:01:32;;;;;;;19.93;14.07;;;6.30;72.30;;;;;;5007701;28;20058;-74
2021/01/10 09:04:00;;;;;;;21.53;14.67;;;6.30;72.10;;;;;;5009703;28;20057;-73
2021/01/10 09:06:47;;;;;;;26.50;17.13;;;6.30;72.10;;;;;;5010791;28;20038;-73
2021/01/10 09:09:41;;;;;;;28.47;16.17;;;6.40;72.20;;;;;;5002371;28;20108;-73
2021/01/10 09:12:20;;;;;;;19.77;13.17;;;6.40;72.30;;;;;;5000126;28;20046;-75
2021/01/10 09:15:08;;;;;;;19.80;13.17;;;6.50;72.30;;;;;;5005601;28;20124;-73
2021/01/10 09:17:50;;;;;;;16.97;13.23;;;6.50;72.30;;;;;;5011110;28;20038;-74
2021/01/10 09:20:20;;;;;;;25.13;14.07;;;6.50;72.40;;;;;;5001724;28;20113;-73
2021/01/10 09:22:47;;;;;;;18.70;12.77;;;6.60;72.40;;;;;;5001293;28;20032;-74
2021/01/10 09:25:15;;;;;;;19.47;14.03;;;6.60;72.40;;;;;;5014303;28;20030;-73
2021/01/10 09:28:11;;;;;;;21.40;14.97;;;6.70;72.20;;;;;;4996004;28;20097;-74
2021/01/10 09:30:45;;;;;;;21.87;13.73;;;6.70;71.90;;;;;;4995151;28;20033;-74
2021/01/10 09:33:11;;;;;;;18.90;13.17;;;6.60;71.90;;;;;;5000059;28;20026;-74
2021/01/10 09:35:47;;;;;;;23.83;13.33;;;6.70;72.00;;;;;;5007511;28;21945;-74
2021/01/10 09:38:24;;;;;;;18.50;13.37;;;6.70;71.80;;;;;;4990714;28;20510;-78
2021/01/10 09:40:59;;;;;;;20.00;12.93;;;6.80;71.50;;;;;;5002679;28;20022;-75
2021/01/10 09:43:52;;;;;;;27.90;14.27;;;6.80;71.40;;;;;;4997064;28;20053;-78
2021/01/10 09:46:35;;;;;;;20.70;12.53;;;6.80;71.10;;;;;;5022879;28;20046;-76
2021/01/10 09:49:04;;;;;;;20.05;13.38;;;6.80;71.20;;;;;;4994757;28;20460;-76
2021/01/10 09:51:38;;;;;;;16.97;13.03;;;6.80;71.30;;;;;;5007449;28;20029;-79
2021/01/10 09:54:36;;;;;;;19.17;14.17;;;6.90;71.40;;;;;;5009850;28;20033;-79
2021/01/10 09:57:09;;;;;;;22.87;16.03;;;6.90;71.00;;;;;;4995301;28;20046;-81
2021/01/10 09:59:40;;;;;;;18.30;13.13;;;7.00;71.20;;;;;;5006120;28;20476;-79
2021/01/10 10:02:23;;;;;;;18.80;13.83;;;7.10;71.10;;;;;;4998545;28;20026;-81
2021/01/10 10:04:50;;;;;;;22.90;14.90;;;7.30;70.80;;;;;;5006744;28;20057;-76
2021/01/10 10:07:36;;;;;;;19.80;14.90;;;7.40;70.70;;;;;;5009183;28;20116;-78
2021/01/10 10:10:04;;;;;;;21.60;15.10;;;7.60;70.20;;;;;;5005788;28;20053;-75
2021/01/10 10:12:30;;;;;;;18.00;14.53;;;7.60;69.60;;;;;;5002380;28;20025;-76
2021/01/10 10:14:58;;;;;;;22.83;15.23;;;7.70;69.40;;;;;;5005006;28;20034;-77
2021/01/10 10:17:30;;;;;;;22.33;15.17;;;7.70;69.10;;;;;;5005620;28;20117;-75
2021/01/10 10:19:57;;;;;;;22.60;15.90;;;8.90;69.60;;;;;;4996468;28;20026;-75
2021/01/10 10:22:28;;;;;;;24.03;16.20;;;7.80;68.70;;;;;;5008152;28;20133;-74
2021/01/10 10:24:54;;;;;;;23.10;15.23;;;7.80;68.80;;;;;;5014271;28;20037;-75
2021/01/10 10:27:20;;;;;;;28.13;14.43;;;7.70;69.10;;;;;;5010552;28;20048;-74
2021/01/10 10:29:46;;;;;;;18.13;13.50;;;7.70;69.40;;;;;;5015076;28;20038;-75
2021/01/10 10:32:12;;;;;;;18.37;13.90;;;7.70;69.50;;;;;;5019981;28;20033;-74
2021/01/10 10:34:38;;;;;;;20.03;14.10;;;7.70;69.40;;;;;;5006674;28;20029;-75
2021/01/10 10:37:06;;;;;;;19.67;14.43;;;7.80;69.30;;;;;;4987389;28;616846;-73
2021/01/10 10:39:32;;;;;;;20.00;14.43;;;7.80;68.90;;;;;;4976856;28;20076;-73
2021/01/10 10:41:58;;;;;;;23.40;14.23;;;7.70;68.90;;;;;;5001250;28;20466;-73
2021/01/10 10:44:23;;;;;;;19.03;13.73;;;7.70;69.30;;;;;;5011647;28;20403;-73
2021/01/10 10:46:49;;;;;;;20.90;14.57;;;7.60;69.50;;;;;;5010950;28;20048;-73
2021/01/10 10:49:15;;;;;;;16.27;13.40;;;7.60;69.50;;;;;;4991894;28;20030;-74
2021/01/10 10:51:40;;;;;;;17.87;13.47;;;7.70;69.50;;;;;;5010315;28;20076;-74
2021/01/10 10:54:08;;;;;;;21.00;14.17;;;7.70;69.30;;;;;;4999878;28;20034;-74
2021/01/10 10:56:40;;;;;;;22.10;15.43;;;7.80;69.00;;;;;;5002606;28;20030;-72
2021/01/10 10:59:06;;;;;;;27.10;16.40;;;7.80;69.00;;;;;;5006257;28;20031;-72
2021/01/10 11:01:43;;;;;;;20.57;15.97;;;7.90;68.80;;;;;;5008617;28;20403;-72
2021/01/10 11:04:09;;;;;;;18.53;13.57;;;7.90;68.90;;;;;;5014164;28;20033;-72
2021/01/10 11:06:36;;;;;;;18.38;14.00;;;7.90;68.90;;;;;;4999964;28;20046;-71
2021/01/10 11:09:07;;;;;;;21.80;15.15;;;7.90;68.90;;;;;;4991963;28;20263;-73
2021/01/10 11:11:45;;;;;;;21.70;15.35;;;8.10;68.70;;;;;;5000934;28;20100;-74
2021/01/10 11:14:12;;;;;;;20.92;14.75;;;8.20;68.70;;;;;;4992008;28;20096;-73
2021/01/10 11:16:39;;;;;;;20.17;14.27;;;8.20;68.70;;;;;;5020282;28;20491;-74
2021/01/10 11:19:06;;;;;;;20.90;14.02;;;8.20;68.90;;;;;;5019393;28;20084;-74
2021/01/10 11:21:37;;;;;;;21.17;14.55;;;8.30;68.70;;;;;;5000253;28;20028;-72
2021/01/10 11:24:04;;;;;;;19.67;14.27;;;8.40;68.80;;;;;;4990946;28;20036;-74
2021/01/10 11:26:30;;;;;;;22.90;14.60;;;8.40;68.50;;;;;;5007810;28;20038;-75
2021/01/10 11:28:56;;;;;;;20.65;15.00;;;8.40;68.50;;;;;;5005833;28;20416;-74
2021/01/10 11:31:26;;;;;;;20.00;14.52;;;8.50;68.80;;;;;;5007576;28;20037;-73
2021/01/10 11:33:53;;;;;;;18.98;13.80;;;8.50;68.60;;;;;;5005883;28;20133;-74
2021/01/10 11:36:19;;;;;;;22.63;14.32;;;8.50;68.40;;;;;;5007079;28;20038;-74
2021/01/10 11:38:50;;;;;;;19.63;13.48;;;8.50;67.60;;;;;;5005301;28;20132;-70
2021/01/10 11:41:17;;;;;;;20.02;14.50;;;8.40;68.00;;;;;;5000525;28;20034;-71
2021/01/10 11:43:43;;;;;;;17.55;13.57;;;8.40;68.10;;;;;;5006430;28;20145;-69
2021/01/10 11:46:10;;;;;;;17.70;12.65;;;8.50;68.20;;;;;;4995427;28;20113;-69
2021/01/10 11:48:37;;;;;;;19.95;13.93;;;8.60;67.90;;;;;;4998660;28;20438;-68
2021/01/10 11:51:05;;;;;;;20.42;13.90;;;8.70;67.80;;;;;;5007927;28;20056;-70
2021/01/10 11:53:31;;;;;;;18.52;12.80;;;8.70;67.50;;;;;;5002099;28;20026;-70
2021/01/10 11:56:00;;;;;;;19.85;12.98;;;8.70;67.40;;;;;;5008678;28;20135;-71
2021/01/10 11:58:26;;;;;;;17.80;12.57;;;8.70;67.50;;;;;;4996244;28;20045;-69
2021/01/10 12:00:53;;;;;;;18.95;13.40;;;8.80;67.40;;;;;;5005762;28;20042;-70
2021/01/10 12:03:19;;;;;;;19.73;13.20;;;8.90;67.40;;;;;;5007800;28;20494;-70
2021/01/10 12:05:45;;;;;;;16.05;11.60;;;9.00;67.10;;;;;;4999997;28;20100;-69
2021/01/10 12:08:11;;;;;;;22.38;12.90;;;9.20;67.00;;;;;;4998803;28;20069;-71
2021/01/10 12:10:37;;;;;;;23.25;13.75;;;9.30;66.80;;;;;;4994828;28;20031;-69
2021/01/10 12:13:03;;;;;;;16.02;11.77;;;9.40;66.70;;;;;;5001128;28;20034;-69
2021/01/10 12:15:33;;;;;;;15.35;11.25;;;9.60;66.50;;;;;;5006366;28;20387;-69
2021/01/10 12:18:03;;;;;;;14.57;11.25;;;9.70;65.50;;;;;;4989389;28;20026;-69
2021/01/10 12:20:29;;;;;;;15.15;10.90;;;9.80;65.60;;;;;;4992723;28;20024;-70
2021/01/10 12:22:55;;;;;;;14.45;10.95;;;9.80;65.20;;;;;;4989683;28;20022;-69
2021/01/10 12:25:21;;;;;;;17.02;11.65;;;9.60;64.70;;;;;;4987942;28;20349;-69
2021/01/10 12:27:47;;;;;;;16.50;11.93;;;9.50;65.00;;;;;;4993371;28;20053;-69
2021/01/10 12:30:14;;;;;;;16.23;11.52;;;9.50;65.50;;;;;;4991778;28;20094;-69
2021/01/10 12:32:39;;;;;;;15.77;10.82;;;9.50;65.70;;;;;;4988620;28;20097;-69
2021/01/10 12:35:07;;;;;;;21.95;11.20;;;9.40;65.20;;;;;;4993016;28;20026;-70
2021/01/10 12:37:33;;;;;;;17.48;11.15;;;9.30;64.80;;;;;;4993444;28;20061;-70
2021/01/10 12:39:59;;;;;;;13.77;9.35;;;9.20;65.10;;;;;;4989144;28;20065;-69
2021/01/10 12:42:25;;;;;;;12.65;9.50;;;9.00;65.40;;;;;;5008695;28;20062;-69
2021/01/10 12:44:52;;;;;;;13.68;9.80;;;9.10;65.70;;;;;;4995525;28;20022;-69
2021/01/10 12:47:17;;;;;;;14.40;10.10;;;9.10;65.70;;;;;;4993468;28;20030;-70